createdAt,value
2018-12-25T00:00:47.579Z,96.16
2018-12-25T00:01:47.551Z,95.89
2018-12-25T00:02:47.543Z,96.06
2018-12-25T00:03:47.572Z,96.16
2018-12-25T00:04:47.531Z,95.64
2018-12-25T00:05:47.508Z,95.43
2018-12-25T00:06:47.821Z,95.95
2018-12-25T00:07:47.488Z,95.75
2018-12-25T00:08:47.492Z,95.43
2018-12-25T00:09:47.489Z,95.23
2018-12-25T00:10:47.453Z,95.54
2018-12-25T00:11:47.451Z,94.92
2018-12-25T00:12:47.449Z,95.37
2018-12-25T00:13:47.422Z,95.37
2018-12-25T00:14:47.412Z,95.79
2018-12-25T00:15:47.454Z,95.79
2018-12-25T00:16:47.389Z,95.68
2018-12-25T00:17:47.413Z,96.25
2018-12-25T00:18:47.370Z,96.42
2018-12-25T00:19:47.374Z,96.15
2018-12-25T00:20:47.367Z,96.67
2018-12-25T00:21:47.340Z,96.52
2018-12-25T00:22:47.360Z,96.11
2018-12-25T00:23:47.403Z,95.68
2018-12-25T00:24:47.309Z,96.25
2018-12-25T00:25:47.297Z,95.83
2018-12-25T00:26:47.293Z,96.25
2018-12-25T00:27:47.294Z,96.25
2018-12-25T00:28:47.296Z,96.15
2018-12-25T00:29:47.254Z,96.30
2018-12-25T00:30:47.267Z,96.82
2018-12-25T00:31:47.287Z,97.13
2018-12-25T00:32:47.223Z,97.24
2018-12-25T00:33:47.243Z,97.03
2018-12-25T00:34:47.231Z,97.50
2018-12-25T00:35:47.195Z,97.03
2018-12-25T00:36:47.180Z,97.65
2018-12-25T00:37:47.169Z,97.97
2018-12-25T00:38:47.192Z,97.19
2018-12-25T00:39:47.171Z,97.30
2018-12-25T00:40:47.139Z,96.71
2018-12-25T00:41:47.161Z,96.82
2018-12-25T00:42:47.118Z,97.24
2018-12-25T00:43:47.122Z,97.24
2018-12-25T00:44:47.123Z,97.24
2018-12-25T00:45:47.085Z,97.24
2018-12-25T00:46:47.096Z,97.13
2018-12-25T00:47:47.106Z,97.24
2018-12-25T00:48:47.085Z,97.13
2018-12-25T00:49:47.047Z,97.30
2018-12-25T00:50:47.045Z,97.03
2018-12-25T00:51:47.036Z,97.03
2018-12-25T00:52:47.011Z,96.67
2018-12-25T00:53:47.015Z,96.67
2018-12-25T00:54:47.013Z,96.50
2018-12-25T00:55:46.985Z,96.04
2018-12-25T00:56:46.969Z,96.46
2018-12-25T00:57:47.003Z,96.25
2018-12-25T00:58:46.964Z,96.56
2018-12-25T00:59:46.938Z,96.25
2018-12-25T01:00:46.929Z,96.25
2018-12-25T01:01:46.917Z,95.94
2018-12-25T01:02:46.907Z,96.36
2018-12-25T01:03:46.946Z,96.15
2018-12-25T01:04:46.884Z,96.25
2018-12-25T01:05:46.885Z,96.25
2018-12-25T01:06:46.863Z,96.04
2018-12-25T01:07:46.851Z,96.30
2018-12-25T01:08:46.856Z,95.98
2018-12-25T01:09:46.839Z,96.30
2018-12-25T01:10:46.856Z,96.92
2018-12-25T01:11:46.809Z,96.82
2018-12-25T01:12:46.802Z,96.71
2018-12-25T01:13:46.802Z,96.92
2018-12-25T01:14:46.777Z,96.66
2018-12-25T01:15:46.769Z,96.66
2018-12-25T01:16:46.800Z,96.55
2018-12-25T01:17:46.748Z,97.38
2018-12-25T01:18:46.755Z,97.28
2018-12-25T01:19:46.726Z,97.38
2018-12-25T01:20:46.721Z,97.28
2018-12-25T01:21:46.735Z,97.34
2018-12-25T01:22:46.696Z,97.49
2018-12-25T01:23:46.699Z,97.28
2018-12-25T01:24:46.685Z,97.49
2018-12-25T01:25:46.694Z,96.76
2018-12-25T01:26:46.651Z,97.28
2018-12-25T01:27:46.644Z,97.28
2018-12-25T01:28:46.648Z,97.28
2018-12-25T01:29:46.620Z,96.76
2018-12-25T01:30:46.609Z,96.92
2018-12-25T01:31:46.606Z,96.71
2018-12-25T01:32:46.642Z,96.86
2018-12-25T01:33:46.597Z,96.71
2018-12-25T01:34:46.570Z,96.86
2018-12-25T01:35:46.576Z,96.82
2018-12-25T01:36:46.562Z,96.71
2018-12-25T01:37:46.538Z,96.71
2018-12-25T01:38:46.531Z,96.19
2018-12-25T01:39:46.534Z,96.15
2018-12-25T01:40:46.523Z,95.83
2018-12-25T01:41:46.494Z,95.42
2018-12-25T01:42:46.486Z,95.21
2018-12-25T01:43:46.487Z,95.42
2018-12-25T01:44:46.474Z,95.42
2018-12-25T01:45:46.484Z,95.67
2018-12-25T01:46:46.454Z,95.56
2018-12-25T01:47:46.433Z,95.25
2018-12-25T01:48:46.444Z,95.36
2018-12-25T01:49:46.410Z,95.98
2018-12-25T01:50:46.416Z,95.98
2018-12-25T01:51:46.391Z,95.78
2018-12-25T01:52:46.391Z,96.09
2018-12-25T01:53:46.373Z,96.30
2018-12-25T01:54:46.359Z,96.23
2018-12-25T01:55:46.402Z,96.13
2018-12-25T01:56:46.348Z,96.13
2018-12-25T01:57:46.331Z,95.82
2018-12-25T01:58:46.318Z,95.82
2018-12-25T01:59:46.322Z,96.23
2018-12-25T02:00:46.316Z,96.34
2018-12-25T02:01:46.293Z,96.23
2018-12-25T02:02:46.279Z,96.34
2018-12-25T02:03:46.305Z,96.34
2018-12-25T02:04:46.272Z,95.67
2018-12-25T02:05:46.249Z,96.23
2018-12-25T02:06:46.238Z,95.92
2018-12-25T02:07:46.240Z,95.82
2018-12-25T02:08:46.220Z,96.44
2018-12-25T02:09:46.240Z,96.03
2018-12-25T02:10:46.193Z,96.03
2018-12-25T02:11:46.185Z,96.03
2018-12-25T02:12:46.173Z,96.23
2018-12-25T02:13:46.163Z,95.92
2018-12-25T02:14:46.197Z,96.03
2018-12-25T02:15:46.164Z,96.34
2018-12-25T02:16:46.133Z,96.03
2018-12-25T02:17:46.117Z,96.13
2018-12-25T02:18:46.123Z,96.55
2018-12-25T02:19:46.114Z,96.66
2018-12-25T02:20:46.087Z,96.66
2018-12-25T02:21:46.079Z,96.55
2018-12-25T02:22:46.080Z,96.38
2018-12-25T02:23:46.062Z,96.49
2018-12-25T02:24:46.071Z,96.80
2018-12-25T02:25:46.038Z,97.32
2018-12-25T02:26:46.034Z,96.80
2018-12-25T02:27:46.032Z,97.32
2018-12-25T02:28:46.007Z,97.74
2018-12-25T02:29:46.303Z,97.78
2018-12-25T02:30:45.985Z,97.53
2018-12-25T02:31:45.990Z,97.64
2018-12-25T02:32:45.973Z,97.53
2018-12-25T02:33:45.960Z,97.74
2018-12-25T02:34:45.944Z,97.89
2018-12-25T02:35:45.966Z,97.47
2018-12-25T02:36:45.922Z,97.78
2018-12-25T02:37:45.916Z,97.78
2018-12-25T02:38:45.939Z,97.68
2018-12-25T02:39:45.891Z,97.78
2018-12-25T02:40:45.896Z,97.85
2018-12-25T02:41:45.911Z,97.95
2018-12-25T02:42:45.935Z,97.43
2018-12-25T02:43:45.847Z,97.74
2018-12-25T02:44:45.845Z,97.68
2018-12-25T02:45:45.840Z,97.37
2018-12-25T02:46:45.833Z,97.58
2018-12-25T02:47:45.807Z,97.89
2018-12-25T02:48:45.807Z,97.68
2018-12-25T02:49:50.179Z,97.37
2018-12-25T02:50:45.796Z,97.58
2018-12-25T02:51:45.857Z,97.99
2018-12-25T02:52:45.772Z,98.21
2018-12-25T02:53:45.757Z,98.77
2018-12-25T02:54:45.766Z,98.62
2018-12-25T02:55:45.725Z,98.62
2018-12-25T02:56:45.712Z,98.72
2018-12-25T02:57:45.720Z,98.10
2018-12-25T02:58:45.708Z,98.41
2018-12-25T02:59:45.686Z,98.62
2018-12-25T03:00:46.664Z,97.89
2018-12-25T03:01:45.679Z,98.88
2018-12-25T03:02:45.668Z,98.04
2018-12-25T03:03:45.646Z,98.04
2018-12-25T03:04:45.632Z,98.25
2018-12-25T03:05:45.634Z,98.35
2018-12-25T03:06:45.639Z,97.77
2018-12-25T03:07:45.600Z,97.71
2018-12-25T03:08:45.598Z,97.81
2018-12-25T03:09:45.598Z,97.96
2018-12-25T03:10:45.570Z,97.96
2018-12-25T03:11:45.572Z,98.32
2018-12-25T03:12:45.552Z,97.49
2018-12-25T03:13:45.543Z,97.95
2018-12-25T03:14:45.531Z,98.16
2018-12-25T03:15:45.516Z,98.10
2018-12-25T03:16:45.526Z,99.00
2018-12-25T03:17:45.522Z,99.84
2018-12-25T03:18:45.483Z,99.99
2018-12-25T03:19:45.475Z,99.73
2018-12-25T03:20:45.464Z,99.84
2018-12-25T03:21:45.473Z,99.73
2018-12-25T03:22:45.442Z,99.77
2018-12-25T03:23:45.430Z,99.46
2018-12-25T03:24:45.556Z,99.77
2018-12-25T03:25:45.419Z,99.93
2018-12-25T03:26:45.414Z,99.82
2018-12-25T03:27:45.392Z,99.93
2018-12-25T03:28:45.381Z,99.99
2018-12-25T03:29:45.371Z,99.99
2018-12-25T03:30:45.374Z,99.99
2018-12-25T03:31:45.372Z,99.99
2018-12-25T03:32:45.343Z,99.99
2018-12-25T03:33:45.326Z,99.99
2018-12-25T03:34:45.316Z,99.99
2018-12-25T03:35:45.313Z,99.99
2018-12-25T03:36:45.321Z,99.99
2018-12-25T03:37:45.285Z,99.99
2018-12-25T03:38:45.271Z,99.99
2018-12-25T03:39:45.263Z,99.99
2018-12-25T03:40:45.257Z,99.99
2018-12-25T03:41:45.256Z,99.99
2018-12-25T03:42:45.239Z,99.99
2018-12-25T03:43:45.220Z,99.99
2018-12-25T03:44:45.209Z,99.99
2018-12-25T03:45:45.201Z,99.99
2018-12-25T03:46:45.202Z,99.99
2018-12-25T03:47:45.187Z,99.99
2018-12-25T03:48:45.179Z,99.99
2018-12-25T03:49:45.159Z,99.99
2018-12-25T03:50:45.161Z,99.99
2018-12-25T03:51:45.151Z,99.99
2018-12-25T03:52:45.125Z,99.99
2018-12-25T03:53:45.117Z,99.99
2018-12-25T03:54:45.109Z,99.99
2018-12-25T03:55:45.100Z,99.99
2018-12-25T03:56:45.119Z,99.99
2018-12-25T03:57:45.073Z,99.99
2018-12-25T03:58:45.065Z,99.99
2018-12-25T03:59:45.055Z,99.99
2018-12-25T04:00:45.053Z,99.99
2018-12-25T04:01:45.053Z,99.99
2018-12-25T04:02:45.030Z,99.99
2018-12-25T04:03:45.044Z,99.99
2018-12-25T04:04:44.999Z,99.99
2018-12-25T04:05:44.988Z,99.99
2018-12-25T04:06:44.979Z,99.99
2018-12-25T04:07:44.972Z,99.99
2018-12-25T04:08:44.992Z,99.99
2018-12-25T04:09:44.947Z,99.99
2018-12-25T04:10:44.938Z,99.99
2018-12-25T04:11:44.926Z,99.99
2018-12-25T04:12:44.916Z,99.99
2018-12-25T04:13:44.953Z,99.99
2018-12-25T04:14:44.894Z,99.99
2018-12-25T04:15:44.883Z,99.99
2018-12-25T04:16:44.872Z,99.99
2018-12-25T04:17:44.870Z,99.99
2018-12-25T04:18:44.869Z,99.99
2018-12-25T04:19:44.888Z,99.99
2018-12-25T04:20:44.832Z,99.99
2018-12-25T04:21:44.821Z,99.99
2018-12-25T04:22:44.814Z,99.99
2018-12-25T04:23:44.817Z,99.99
2018-12-25T04:24:44.789Z,99.99
2018-12-25T04:25:44.818Z,99.99
2018-12-25T04:26:44.775Z,99.99
2018-12-25T04:27:44.760Z,99.99
2018-12-25T04:28:44.777Z,99.99
2018-12-25T04:29:44.743Z,99.99
2018-12-25T04:30:44.727Z,99.99
2018-12-25T04:31:44.715Z,99.99
2018-12-25T04:32:44.738Z,99.99
2018-12-25T04:33:44.702Z,99.99
2018-12-25T04:34:44.704Z,99.99
2018-12-25T04:35:44.677Z,99.99
2018-12-25T04:36:44.663Z,99.99
2018-12-25T04:37:44.653Z,99.99
2018-12-25T04:38:44.667Z,99.99
2018-12-25T04:39:44.657Z,99.99
2018-12-25T04:40:44.623Z,99.99
2018-12-25T04:41:44.618Z,99.99
2018-12-25T04:42:44.604Z,99.99
2018-12-25T04:43:44.591Z,99.99
2018-12-25T04:44:44.593Z,99.99
2018-12-25T04:45:44.586Z,99.99
2018-12-25T04:46:44.558Z,99.99
2018-12-25T04:47:44.546Z,99.99
2018-12-25T04:48:44.536Z,99.99
2018-12-25T04:49:44.560Z,99.99
2018-12-25T04:50:44.525Z,99.99
2018-12-25T04:51:44.523Z,99.99
2018-12-25T04:52:44.496Z,99.99
2018-12-25T04:53:44.484Z,99.99
2018-12-25T04:54:44.503Z,99.99
2018-12-25T04:55:44.463Z,99.99
2018-12-25T04:56:44.454Z,99.99
2018-12-25T04:57:44.446Z,99.99
2018-12-25T04:58:44.467Z,99.99
2018-12-25T04:59:44.460Z,99.99
2018-12-25T05:00:44.412Z,99.99
2018-12-25T05:01:44.404Z,99.99
2018-12-25T05:02:44.393Z,99.99
2018-12-25T05:03:44.405Z,99.99
2018-12-25T05:04:44.396Z,99.99
2018-12-25T05:05:44.357Z,99.99
2018-12-25T05:06:44.366Z,99.99
2018-12-25T05:07:44.345Z,99.99
2018-12-25T05:08:44.329Z,99.99
2018-12-25T05:09:44.337Z,99.99
2018-12-25T05:10:44.326Z,99.99
2018-12-25T05:11:44.298Z,99.99
2018-12-25T05:12:44.304Z,99.99
2018-12-25T05:13:44.274Z,99.99
2018-12-25T05:14:44.280Z,99.99
2018-12-25T05:15:44.255Z,99.99
2018-12-25T05:16:44.301Z,99.99
2018-12-25T05:17:44.273Z,99.99
2018-12-25T05:18:44.223Z,99.99
2018-12-25T05:19:44.517Z,99.99
2018-12-25T05:20:44.203Z,99.99
2018-12-25T05:21:44.189Z,99.99
2018-12-25T05:22:44.178Z,99.99
2018-12-25T05:23:44.193Z,99.99
2018-12-25T05:24:44.182Z,99.99
2018-12-25T05:25:44.182Z,99.99
2018-12-25T05:26:44.139Z,99.99
2018-12-25T05:27:44.136Z,99.99
2018-12-25T05:28:44.131Z,99.99
2018-12-25T05:29:44.107Z,99.99
2018-12-25T05:30:44.137Z,99.99
2018-12-25T05:31:44.088Z,99.99
2018-12-25T05:32:44.075Z,99.99
2018-12-25T05:33:44.065Z,99.99
2018-12-25T05:34:44.060Z,99.99
2018-12-25T05:35:44.069Z,99.99
2018-12-25T05:36:44.039Z,99.99
2018-12-25T05:37:44.022Z,99.99
2018-12-25T05:38:44.020Z,99.99
2018-12-25T05:39:44.011Z,99.99
2018-12-25T05:40:44.008Z,99.99
2018-12-25T05:41:43.981Z,99.99
2018-12-25T05:42:43.973Z,99.99
2018-12-25T05:43:43.959Z,99.99
2018-12-25T05:44:43.949Z,99.99
2018-12-25T05:45:43.955Z,99.99
2018-12-25T05:46:43.933Z,99.99
2018-12-25T05:47:43.918Z,99.99
2018-12-25T05:48:43.919Z,99.99
2018-12-25T05:49:43.907Z,99.99
2018-12-25T05:50:46.836Z,99.99
2018-12-25T05:51:43.890Z,99.99
2018-12-25T05:52:43.867Z,99.99
2018-12-25T05:53:43.866Z,99.99
2018-12-25T05:54:43.848Z,99.99
2018-12-25T05:55:43.851Z,99.99
2018-12-25T05:56:43.821Z,99.99
2018-12-25T05:57:43.824Z,99.99
2018-12-25T05:58:43.817Z,99.99
2018-12-25T05:59:43.819Z,99.99
2018-12-25T06:00:43.798Z,99.99
2018-12-25T06:01:43.769Z,99.99
2018-12-25T06:02:43.782Z,99.99
2018-12-25T06:03:43.749Z,99.99
2018-12-25T06:04:43.737Z,99.99
2018-12-25T06:05:43.791Z,99.99
2018-12-25T06:06:43.727Z,99.99
2018-12-25T06:07:43.708Z,99.99
2018-12-25T06:08:43.696Z,99.99
2018-12-25T06:09:43.685Z,99.99
2018-12-25T06:10:43.675Z,99.99
2018-12-25T06:11:43.692Z,99.99
2018-12-25T06:12:43.660Z,99.99
2018-12-25T06:13:43.686Z,99.99
2018-12-25T06:14:43.631Z,99.99
2018-12-25T06:15:43.626Z,99.99
2018-12-25T06:16:43.627Z,99.99
2018-12-25T06:17:43.608Z,99.99
2018-12-25T06:18:43.608Z,99.99
2018-12-25T06:19:43.579Z,99.99
2018-12-25T06:20:43.574Z,99.99
2018-12-25T06:21:43.615Z,99.99
2018-12-25T06:22:43.548Z,99.99
2018-12-25T06:23:43.539Z,99.99
2018-12-25T06:24:43.530Z,99.99
2018-12-25T06:25:43.539Z,99.99
2018-12-25T06:26:43.530Z,99.99
2018-12-25T06:27:43.495Z,99.99
2018-12-25T06:28:43.525Z,99.99
2018-12-25T06:29:43.492Z,99.99
2018-12-25T06:30:43.464Z,99.99
2018-12-25T06:31:43.471Z,99.99
2018-12-25T06:32:43.442Z,99.99
2018-12-25T06:33:43.431Z,99.99
2018-12-25T06:34:43.443Z,99.99
2018-12-25T06:35:43.417Z,99.99
2018-12-25T06:36:43.421Z,99.99
2018-12-25T06:37:43.415Z,99.99
2018-12-25T06:38:43.379Z,99.99
2018-12-25T06:39:43.369Z,99.99
2018-12-25T06:40:43.368Z,99.99
2018-12-25T06:41:43.369Z,99.99
2018-12-25T06:42:43.337Z,99.99
2018-12-25T06:43:43.367Z,99.99
2018-12-25T06:44:43.319Z,99.99
2018-12-25T06:45:43.307Z,99.99
2018-12-25T06:46:43.326Z,99.99
2018-12-25T06:47:43.287Z,99.99
2018-12-25T06:48:43.284Z,99.99
2018-12-25T06:49:43.266Z,99.99
2018-12-25T06:50:43.255Z,99.99
2018-12-25T06:51:43.263Z,99.99
2018-12-25T06:52:43.276Z,99.99
2018-12-25T06:53:43.224Z,99.99
2018-12-25T06:54:43.216Z,99.99
2018-12-25T06:55:43.205Z,99.99
2018-12-25T06:56:43.224Z,99.99
2018-12-25T06:57:43.204Z,99.99
2018-12-25T06:58:43.172Z,99.99
2018-12-25T06:59:43.174Z,99.99
2018-12-25T07:00:43.156Z,99.99
2018-12-25T07:01:43.140Z,99.99
2018-12-25T07:02:43.144Z,99.99
2018-12-25T07:03:43.119Z,99.99
2018-12-25T07:04:43.132Z,99.99
2018-12-25T07:05:43.100Z,99.99
2018-12-25T07:06:43.091Z,99.99
2018-12-25T07:07:43.098Z,99.99
2018-12-25T07:08:43.088Z,99.99
2018-12-25T07:09:43.056Z,99.99
2018-12-25T07:10:43.069Z,99.99
2018-12-25T07:11:43.047Z,99.99
2018-12-25T07:12:43.031Z,99.99
2018-12-25T07:13:43.018Z,99.99
2018-12-25T07:14:43.006Z,99.99
2018-12-25T07:15:43.012Z,99.99
2018-12-25T07:16:42.985Z,99.99
2018-12-25T07:17:43.005Z,99.99
2018-12-25T07:18:42.968Z,99.99
2018-12-25T07:19:42.962Z,99.99
2018-12-25T07:20:42.968Z,99.99
2018-12-25T07:21:42.932Z,99.99
2018-12-25T07:22:42.921Z,99.99
2018-12-25T07:23:42.910Z,99.99
2018-12-25T07:24:42.901Z,99.99
2018-12-25T07:25:42.946Z,99.99
2018-12-25T07:26:42.877Z,99.99
2018-12-25T07:27:42.885Z,99.99
2018-12-25T07:28:42.920Z,99.99
2018-12-25T07:29:42.847Z,99.99
2018-12-25T07:30:42.838Z,99.99
2018-12-25T07:31:42.868Z,99.99
2018-12-25T07:32:42.834Z,99.99
2018-12-25T07:33:42.803Z,99.99
2018-12-25T07:34:42.800Z,99.99
2018-12-25T07:35:42.805Z,99.99
2018-12-25T07:36:42.789Z,99.99
2018-12-25T07:37:42.808Z,99.99
2018-12-25T07:38:42.765Z,99.99
2018-12-25T07:39:42.745Z,99.99
2018-12-25T07:40:42.731Z,99.99
2018-12-25T07:41:42.727Z,99.99
2018-12-25T07:42:42.726Z,99.99
2018-12-25T07:43:42.716Z,99.99
2018-12-25T07:44:42.691Z,99.99
2018-12-25T07:45:42.697Z,99.99
2018-12-25T07:46:42.671Z,99.99
2018-12-25T07:47:42.696Z,99.99
2018-12-25T07:48:42.648Z,99.99
2018-12-25T07:49:42.645Z,99.99
2018-12-25T07:50:42.626Z,99.99
2018-12-25T07:51:42.613Z,99.99
2018-12-25T07:52:42.607Z,99.99
2018-12-25T07:53:42.608Z,99.99
2018-12-25T07:54:42.611Z,99.99
2018-12-25T07:55:42.591Z,99.99
2018-12-25T07:56:42.568Z,99.99
2018-12-25T07:57:42.557Z,99.99
2018-12-25T07:58:42.558Z,99.99
2018-12-25T07:59:42.531Z,99.99
2018-12-25T08:00:42.525Z,99.99
2018-12-25T08:01:42.538Z,99.99
2018-12-25T08:02:42.518Z,99.99
2018-12-25T08:03:42.489Z,99.99
2018-12-25T08:04:42.478Z,99.99
2018-12-25T08:05:42.503Z,99.99
2018-12-25T08:06:42.515Z,99.99
2018-12-25T08:07:42.447Z,99.99
2018-12-25T08:08:42.444Z,99.99
2018-12-25T08:09:42.435Z,99.99
2018-12-25T08:10:42.427Z,99.99
2018-12-25T08:11:42.433Z,99.99
2018-12-25T08:12:42.406Z,99.99
2018-12-25T08:13:42.383Z,99.99
2018-12-25T08:14:42.372Z,99.99
2018-12-25T08:15:42.380Z,99.99
2018-12-25T08:16:42.366Z,99.99
2018-12-25T08:17:42.356Z,99.99
2018-12-25T08:18:42.332Z,99.99
2018-12-25T08:19:42.324Z,99.99
2018-12-25T08:20:42.351Z,99.99
2018-12-25T08:21:42.316Z,99.99
2018-12-25T08:22:42.307Z,99.99
2018-12-25T08:23:42.280Z,99.99
2018-12-25T08:24:42.269Z,99.99
2018-12-25T08:25:42.276Z,99.99
2018-12-25T08:26:42.278Z,99.99
2018-12-25T08:27:42.242Z,99.99
2018-12-25T08:28:42.226Z,99.99
2018-12-25T08:29:42.246Z,99.99
2018-12-25T08:30:42.204Z,99.99
2018-12-25T08:31:42.198Z,99.99
2018-12-25T08:32:42.221Z,99.99
2018-12-25T08:33:42.172Z,99.99
2018-12-25T08:34:42.164Z,99.99
2018-12-25T08:35:42.151Z,99.99
2018-12-25T08:36:42.142Z,99.99
2018-12-25T08:37:42.172Z,99.99
2018-12-25T08:38:42.154Z,99.99
2018-12-25T08:39:42.115Z,99.99
2018-12-25T08:40:42.099Z,99.99
2018-12-25T08:41:42.089Z,99.99
2018-12-25T08:42:42.086Z,99.99
2018-12-25T08:43:42.129Z,99.99
2018-12-25T08:44:42.074Z,99.99
2018-12-25T08:45:42.067Z,99.99
2018-12-25T08:46:42.039Z,99.99
2018-12-25T08:47:42.048Z,99.99
2018-12-25T08:48:42.063Z,99.99
2018-12-25T08:49:42.008Z,99.99
2018-12-25T08:50:41.995Z,99.99
2018-12-25T08:51:41.999Z,99.99
2018-12-25T08:52:41.990Z,99.99
2018-12-25T08:53:41.964Z,99.99
2018-12-25T08:54:42.017Z,99.99
2018-12-25T08:55:41.951Z,99.99
2018-12-25T08:56:41.944Z,99.99
2018-12-25T08:57:41.955Z,99.99
2018-12-25T08:58:41.913Z,99.99
2018-12-25T08:59:41.925Z,99.99
2018-12-25T09:00:41.913Z,99.99
2018-12-25T09:01:41.887Z,99.99
2018-12-25T09:02:41.881Z,99.99
2018-12-25T09:03:41.857Z,99.99
2018-12-25T09:04:41.863Z,99.99
2018-12-25T09:05:41.872Z,99.99
2018-12-25T09:06:41.830Z,99.99
2018-12-25T09:07:41.831Z,99.99
2018-12-25T09:08:41.805Z,99.99
2018-12-25T09:09:41.830Z,99.99
2018-12-25T09:10:41.791Z,99.99
2018-12-25T09:11:41.775Z,99.99
2018-12-25T09:12:41.764Z,99.99
2018-12-25T09:13:41.771Z,99.99
2018-12-25T09:14:41.758Z,99.99
2018-12-25T09:15:41.747Z,99.99
2018-12-25T09:16:41.719Z,99.99
2018-12-25T09:17:41.750Z,99.99
2018-12-25T09:18:41.721Z,99.99
2018-12-25T09:19:41.703Z,99.99
2018-12-25T09:20:41.720Z,99.99
2018-12-25T09:21:46.191Z,99.99
2018-12-25T09:22:41.678Z,99.99
2018-12-25T09:23:41.647Z,99.99
2018-12-25T09:24:41.677Z,99.99
2018-12-25T09:25:41.634Z,99.99
2018-12-25T09:26:41.634Z,99.99
2018-12-25T09:27:41.616Z,99.99
2018-12-25T09:28:41.619Z,99.99
2018-12-25T09:29:41.600Z,99.99
2018-12-25T09:30:41.577Z,99.99
2018-12-25T09:31:41.558Z,99.99
2018-12-25T09:32:41.560Z,99.99
2018-12-25T09:33:41.544Z,99.99
2018-12-25T09:34:41.552Z,99.99
2018-12-25T09:35:41.517Z,99.99
2018-12-25T09:36:41.516Z,99.99
2018-12-25T09:37:41.513Z,99.99
2018-12-25T09:38:41.511Z,99.99
2018-12-25T09:39:41.505Z,99.99
2018-12-25T09:40:41.471Z,99.99
2018-12-25T09:41:41.534Z,99.99
2018-12-25T09:42:41.472Z,99.99
2018-12-25T09:43:41.431Z,99.99
2018-12-25T09:44:41.463Z,99.74
2018-12-25T09:45:41.427Z,99.99
2018-12-25T09:46:41.404Z,99.99
2018-12-25T09:47:41.399Z,99.85
2018-12-25T09:48:41.425Z,99.99
2018-12-25T09:49:41.397Z,99.99
2018-12-25T09:50:41.359Z,99.95
2018-12-25T09:51:41.355Z,99.64
2018-12-25T09:52:41.358Z,99.95
2018-12-25T09:53:41.323Z,99.99
2018-12-25T09:54:41.314Z,99.99
2018-12-25T09:55:41.329Z,99.99
2018-12-25T09:56:41.297Z,99.99
2018-12-25T09:57:41.282Z,99.99
2018-12-25T09:58:41.283Z,99.99
2018-12-25T09:59:41.269Z,99.99
2018-12-25T10:00:41.266Z,99.99
2018-12-25T10:01:41.241Z,99.96
2018-12-25T10:02:41.231Z,99.99
2018-12-25T10:03:41.228Z,99.99
2018-12-25T10:04:41.208Z,99.34
2018-12-25T10:05:41.218Z,99.96
2018-12-25T10:06:41.189Z,99.38
2018-12-25T10:07:41.190Z,99.18
2018-12-25T10:08:41.194Z,99.80
2018-12-25T10:09:41.161Z,99.28
2018-12-25T10:10:41.182Z,99.91
2018-12-25T10:11:44.603Z,99.80
2018-12-25T10:12:41.122Z,99.49
2018-12-25T10:13:41.112Z,99.55
2018-12-25T10:14:41.117Z,99.76
2018-12-25T10:15:41.112Z,99.44
2018-12-25T10:16:41.084Z,99.91
2018-12-25T10:17:41.081Z,99.40
2018-12-25T10:18:41.065Z,99.76
2018-12-25T10:19:41.049Z,99.40
2018-12-25T10:20:41.071Z,99.61
2018-12-25T10:21:41.037Z,99.96
2018-12-25T10:22:41.030Z,98.92
2018-12-25T10:23:41.014Z,99.65
2018-12-25T10:24:40.994Z,99.24
2018-12-25T10:25:41.010Z,99.91
2018-12-25T10:26:40.980Z,99.44
2018-12-25T10:27:41.017Z,99.76
2018-12-25T10:28:40.953Z,99.99
2018-12-25T10:29:41.063Z,99.86
2018-12-25T10:30:40.960Z,99.96
2018-12-25T10:31:40.920Z,99.86
2018-12-25T10:32:40.913Z,99.86
2018-12-25T10:33:40.905Z,99.65
2018-12-25T10:34:40.890Z,99.65
2018-12-25T10:35:40.902Z,99.91
2018-12-25T10:36:40.873Z,99.91
2018-12-25T10:37:40.869Z,99.59
2018-12-25T10:38:40.850Z,99.99
2018-12-25T10:39:40.833Z,99.59
2018-12-25T10:40:40.894Z,99.59
2018-12-25T10:41:40.815Z,99.99
2018-12-25T10:42:40.804Z,99.99
2018-12-25T10:43:40.793Z,99.91
2018-12-25T10:44:40.805Z,99.99
2018-12-25T10:45:40.827Z,99.96
2018-12-25T10:46:40.759Z,99.99
2018-12-25T10:47:40.749Z,99.70
2018-12-25T10:48:40.747Z,99.99
2018-12-25T10:49:40.730Z,99.99
2018-12-25T10:50:41.889Z,99.96
2018-12-25T10:51:40.782Z,99.96
2018-12-25T10:52:40.702Z,99.86
2018-12-25T10:53:40.685Z,99.65
2018-12-25T10:54:40.692Z,99.86
2018-12-25T10:55:40.663Z,99.86
2018-12-25T10:56:40.721Z,99.18
2018-12-25T10:57:40.662Z,99.76
2018-12-25T10:58:40.660Z,99.38
2018-12-25T10:59:40.639Z,99.28
2018-12-25T11:00:40.646Z,99.96
2018-12-25T11:01:40.613Z,99.86
2018-12-25T11:02:40.591Z,99.96
2018-12-25T11:03:40.586Z,99.55
2018-12-25T11:04:40.584Z,99.55
2018-12-25T11:05:40.558Z,99.65
2018-12-25T11:06:40.550Z,98.82
2018-12-25T11:07:40.555Z,99.44
2018-12-25T11:08:40.548Z,99.44
2018-12-25T11:09:40.534Z,99.99
2018-12-25T11:10:40.507Z,99.99
2018-12-25T11:11:40.494Z,99.51
2018-12-25T11:12:40.486Z,99.61
2018-12-25T11:13:40.485Z,99.61
2018-12-25T11:14:40.487Z,99.66
2018-12-25T11:15:40.468Z,99.46
2018-12-25T11:16:40.447Z,99.61
2018-12-25T11:17:40.431Z,99.56
2018-12-25T11:18:48.828Z,99.88
2018-12-25T11:19:41.433Z,99.73
2018-12-25T11:20:40.424Z,99.62
2018-12-25T11:21:40.427Z,99.88
2018-12-25T11:22:40.384Z,99.15
2018-12-25T11:23:40.419Z,99.77
2018-12-25T11:24:40.356Z,99.66
2018-12-25T11:25:40.347Z,98.72
2018-12-25T11:26:40.380Z,99.15
2018-12-25T11:27:40.331Z,98.88
2018-12-25T11:28:40.316Z,98.83
2018-12-25T11:29:40.334Z,99.15
2018-12-25T11:30:40.293Z,98.72
2018-12-25T11:31:40.298Z,99.41
2018-12-25T11:32:40.271Z,98.89
2018-12-25T11:33:40.271Z,98.37
2018-12-25T11:34:40.260Z,98.52
2018-12-25T11:35:40.238Z,98.62
2018-12-25T11:36:40.288Z,98.41
2018-12-25T11:37:40.221Z,98.21
2018-12-25T11:38:40.207Z,98.62
2018-12-25T11:39:40.196Z,98.62
2018-12-25T11:40:40.186Z,98.83
2018-12-25T11:41:40.174Z,98.62
2018-12-25T11:42:40.179Z,98.83
2018-12-25T11:43:40.187Z,98.83
2018-12-25T11:44:40.143Z,99.10
2018-12-25T11:45:40.136Z,99.20
2018-12-25T11:46:40.122Z,98.46
2018-12-25T11:47:40.129Z,98.50
2018-12-25T11:48:40.100Z,98.92
2018-12-25T11:49:40.097Z,98.82
2018-12-25T11:50:40.143Z,99.51
2018-12-25T11:51:40.068Z,98.71
2018-12-25T11:52:40.073Z,98.92
2018-12-25T11:53:40.048Z,99.19
2018-12-25T11:54:40.061Z,99.51
2018-12-25T11:55:40.025Z,99.56
2018-12-25T11:56:40.019Z,98.56
2018-12-25T11:57:40.042Z,99.15
2018-12-25T11:58:39.996Z,99.15
2018-12-25T11:59:39.993Z,98.77
2018-12-25T12:00:39.976Z,99.66
2018-12-25T12:01:39.962Z,99.15
2018-12-25T12:02:39.965Z,99.20
2018-12-25T12:03:39.964Z,99.52
2018-12-25T12:04:39.932Z,99.10
2018-12-25T12:05:39.944Z,99.20
2018-12-25T12:06:39.924Z,98.52
2018-12-25T12:07:39.899Z,98.46
2018-12-25T12:08:39.886Z,98.67
2018-12-25T12:09:39.883Z,98.56
2018-12-25T12:10:39.867Z,99.40
2018-12-25T12:11:39.869Z,99.56
2018-12-25T12:12:39.921Z,99.56
2018-12-25T12:13:39.834Z,99.04
2018-12-25T12:14:39.824Z,98.68
2018-12-25T12:15:39.830Z,99.31
2018-12-25T12:16:39.820Z,98.68
2018-12-25T12:17:39.790Z,98.53
2018-12-25T12:18:39.781Z,98.74
2018-12-25T12:19:39.773Z,98.68
2018-12-25T12:20:39.762Z,98.47
2018-12-25T12:21:39.786Z,98.10
2018-12-25T12:22:39.738Z,98.41
2018-12-25T12:23:39.727Z,98.72
2018-12-25T12:24:39.715Z,98.89
2018-12-25T12:25:39.707Z,98.89
2018-12-25T12:26:39.709Z,98.89
2018-12-25T12:27:39.691Z,99.73
2018-12-25T12:28:39.673Z,99.47
2018-12-25T12:29:39.663Z,98.53
2018-12-25T12:30:39.651Z,98.79
2018-12-25T12:31:39.671Z,98.41
2018-12-25T12:32:39.634Z,98.56
2018-12-25T12:33:39.632Z,98.67
2018-12-25T12:34:39.617Z,99.51
2018-12-25T12:35:39.602Z,99.40
2018-12-25T12:36:39.618Z,99.88
2018-12-25T12:37:39.583Z,99.52
2018-12-25T12:38:39.590Z,99.62
2018-12-25T12:39:39.576Z,99.52
2018-12-25T12:40:40.600Z,99.62
2018-12-25T12:41:39.722Z,99.79
2018-12-25T12:42:39.540Z,99.20
2018-12-25T12:43:39.515Z,99.68
2018-12-25T12:44:39.523Z,99.57
2018-12-25T12:45:39.498Z,99.68
2018-12-25T12:46:39.498Z,99.05
2018-12-25T12:47:39.498Z,98.85
2018-12-25T12:48:39.464Z,98.63
2018-12-25T12:49:39.454Z,98.79
2018-12-25T12:50:39.458Z,98.83
2018-12-25T12:51:39.430Z,98.62
2018-12-25T12:52:45.432Z,99.10